Time;durP1;ratioP1;P1;durP2;ratioP2;P2;SDS_P1;SDS_P2;PMS_P1;PMS_P2;Temp;Humidity;BMP_temperature;BMP_pressure;BME280_temperature;BME280_humidity;BME280_pressure;Samples;Min_cycle;Max_cycle;Signal;HPM_P1;HPM_P2
2022/04/29 00:01:32;;;;;;;11.75;7.10;;;26.60;99.90;;;;;;4181814;28;20049;-71
2022/04/29 00:03:39;;;;;;;7.80;6.70;;;26.60;99.90;;;;;;4196270;28;20043;-70
2022/04/29 00:05:44;;;;;;;9.23;6.82;;;26.70;99.90;;;;;;4195416;28;20048;-70
2022/04/29 00:07:48;;;;;;;11.38;6.78;;;26.60;99.90;;;;;;4196390;28;20053;-70
2022/04/29 00:09:54;;;;;;;9.05;6.55;;;26.50;99.90;;;;;;4202255;28;20052;-70
2022/04/29 00:11:59;;;;;;;9.95;7.20;;;26.50;99.90;;;;;;4197406;28;20041;-70
2022/04/29 00:14:04;;;;;;;9.85;6.38;;;26.40;99.90;;;;;;4195547;28;20045;-70
2022/04/29 00:16:11;;;;;;;12.13;7.03;;;26.50;99.90;;;;;;4202637;28;20058;-70
2022/04/29 00:18:16;;;;;;;7.97;6.03;;;26.70;99.90;;;;;;4188154;28;20053;-70
2022/04/29 00:20:20;;;;;;;9.95;6.88;;;26.60;99.90;;;;;;4202798;28;20057;-71
2022/04/29 00:22:27;;;;;;;10.35;7.15;;;26.50;99.90;;;;;;4202631;28;20058;-70
2022/04/29 00:24:31;;;;;;;9.68;7.60;;;26.50;99.90;;;;;;4202105;28;20044;-70
2022/04/29 00:26:37;;;;;;;13.90;7.32;;;26.40;99.90;;;;;;4196910;28;20338;-70
2022/04/29 00:28:41;;;;;;;9.07;7.15;;;26.50;99.90;;;;;;4197006;28;20048;-70
2022/04/29 00:30:46;;;;;;;9.75;7.75;;;26.50;99.90;;;;;;4200789;28;20470;-70
2022/04/29 00:32:51;;;;;;;10.30;7.47;;;26.50;99.90;;;;;;4202284;28;20067;-70
2022/04/29 00:34:59;;;;;;;12.10;7.60;;;26.40;99.90;;;;;;4199895;28;20048;-70
2022/04/29 00:37:04;;;;;;;12.50;7.93;;;26.60;99.90;;;;;;4203921;28;20074;-70
2022/04/29 00:39:09;;;;;;;11.20;7.80;;;26.70;99.90;;;;;;4197573;28;20068;-70
2022/04/29 00:44:22;;;;;;;8.65;7.43;;;26.60;99.90;;;;;;4161104;28;20055;-70
2022/04/29 00:46:35;;;;;;;12.25;8.15;;;26.50;99.90;;;;;;4190713;28;20339;-70
2022/04/29 00:48:40;;;;;;;14.13;8.32;;;26.70;99.90;;;;;;4185893;28;20045;-71
2022/04/29 00:50:45;;;;;;;11.93;8.50;;;26.80;99.90;;;;;;4192924;28;20037;-69
2022/04/29 00:52:54;;;;;;;11.32;8.13;;;26.80;99.90;;;;;;4194419;28;20093;-70
2022/04/29 00:55:02;;;;;;;11.00;7.72;;;26.90;99.90;;;;;;4197620;28;20853;-70
2022/04/29 00:57:11;;;;;;;9.90;8.13;;;26.90;99.90;;;;;;4191373;28;20045;-69
2022/04/29 00:59:41;;;;;;;13.13;8.53;;;27.00;99.90;;;;;;4187925;28;20044;-71
2022/04/29 01:01:47;;;;;;;11.07;8.35;;;27.00;99.90;;;;;;4186550;28;20295;-70
2022/04/29 01:03:52;;;;;;;11.95;8.55;;;27.00;99.90;;;;;;4196646;28;20050;-69
2022/04/29 01:05:58;;;;;;;10.10;8.38;;;26.90;99.90;;;;;;4189139;28;20060;-68
2022/04/29 01:08:03;;;;;;;10.20;8.05;;;27.00;99.90;;;;;;4182205;28;20045;-69
2022/04/29 01:10:10;;;;;;;13.55;8.80;;;27.20;99.90;;;;;;4188889;28;20048;-71
2022/04/29 01:12:14;;;;;;;10.57;8.43;;;27.20;99.90;;;;;;4186116;28;20048;-70
2022/04/29 01:14:19;;;;;;;13.60;9.07;;;27.20;99.90;;;;;;4191765;28;20044;-69
2022/04/29 01:16:23;;;;;;;13.60;9.07;;;27.10;99.90;;;;;;4182685;28;20048;-70
2022/04/29 01:18:31;;;;;;;17.13;9.98;;;27.30;99.90;;;;;;4191876;28;20070;-69
2022/04/29 01:20:35;;;;;;;14.20;7.88;;;27.20;99.90;;;;;;4188972;28;20057;-69
2022/04/29 01:22:41;;;;;;;11.75;8.95;;;27.20;99.90;;;;;;4188867;28;20045;-68
2022/04/29 01:24:48;;;;;;;15.65;8.68;;;27.30;99.90;;;;;;4188404;28;20075;-70
2022/04/29 01:26:53;;;;;;;10.52;8.32;;;27.30;99.90;;;;;;4188435;28;20591;-69
2022/04/29 01:28:58;;;;;;;12.77;8.63;;;27.30;99.90;;;;;;4172438;28;20207;-70
2022/04/29 01:31:06;;;;;;;11.98;8.80;;;27.20;99.90;;;;;;4176974;28;20625;-71
2022/04/29 01:33:11;;;;;;;11.25;8.38;;;27.20;99.90;;;;;;4191912;28;20048;-69
2022/04/29 01:35:16;;;;;;;13.40;8.48;;;27.20;99.90;;;;;;4192943;28;20102;-70
2022/04/29 01:37:25;;;;;;;12.73;7.90;;;27.30;99.90;;;;;;4190418;28;20079;-68
2022/04/29 01:39:30;;;;;;;10.68;8.48;;;27.50;99.90;;;;;;4196345;28;20079;-69
2022/04/29 01:41:35;;;;;;;10.15;7.65;;;27.60;99.90;;;;;;4179848;28;20053;-70
2022/04/29 01:43:41;;;;;;;10.18;7.40;;;27.50;99.90;;;;;;4195049;28;20060;-69
2022/04/29 01:45:49;;;;;;;9.88;7.18;;;27.60;99.90;;;;;;4195141;28;20052;-70
2022/04/29 01:48:13;;;;;;;8.23;7.20;;;27.60;99.90;;;;;;4195884;28;20063;-70
2022/04/29 01:50:26;;;;;;;10.02;7.30;;;27.90;99.90;;;;;;4195555;28;20631;-70
2022/04/29 01:52:30;;;;;;;10.05;6.95;;;27.80;99.70;;;;;;4181084;28;20087;-70
2022/04/29 01:54:37;;;;;;;8.00;7.22;;;27.70;99.00;;;;;;4169790;28;20049;-70
2022/04/29 01:56:44;;;;;;;10.43;7.05;;;27.70;99.30;;;;;;4185162;28;20114;-69
2022/04/29 01:58:49;;;;;;;9.52;7.20;;;27.70;98.90;;;;;;4199395;28;20044;-69
2022/04/29 02:00:54;;;;;;;10.70;7.90;;;27.80;98.50;;;;;;4203407;28;20037;-68
2022/04/29 02:03:02;;;;;;;9.70;7.18;;;27.90;99.00;;;;;;4196548;28;20056;-69
2022/04/29 02:05:08;;;;;;;8.40;6.82;;;28.00;98.60;;;;;;4195756;28;20049;-69
2022/04/29 02:07:13;;;;;;;8.45;7.35;;;28.10;98.90;;;;;;4194618;28;20048;-69
2022/04/29 02:09:19;;;;;;;11.27;7.70;;;28.20;98.50;;;;;;4198769;28;20053;-68
2022/04/29 02:11:24;;;;;;;9.38;7.47;;;28.40;98.70;;;;;;4193826;28;20037;-69
2022/04/29 02:13:40;;;;;;;9.77;6.75;;;28.40;97.30;;;;;;4199162;28;20854;-68
2022/04/29 02:16:07;;;;;;;10.88;7.70;;;28.40;97.80;;;;;;4194694;28;20056;-68
2022/04/29 02:18:12;;;;;;;11.30;7.68;;;28.40;97.90;;;;;;4190673;28;20040;-70
2022/04/29 02:20:16;;;;;;;10.15;7.88;;;28.40;97.30;;;;;;4193881;28;20061;-68
2022/04/29 02:22:24;;;;;;;12.68;7.47;;;28.50;97.70;;;;;;4178233;28;20068;-69
2022/04/29 02:24:28;;;;;;;8.57;6.90;;;28.60;97.60;;;;;;4180239;28;20056;-69
2022/04/29 02:26:34;;;;;;;9.65;6.93;;;28.60;97.50;;;;;;4185091;28;20087;-69
2022/04/29 02:28:39;;;;;;;9.48;7.10;;;28.70;97.80;;;;;;4198568;28;20040;-69
2022/04/29 02:30:43;;;;;;;10.43;7.20;;;28.80;97.90;;;;;;4187958;28;20045;-70
2022/04/29 02:32:48;;;;;;;10.90;7.22;;;28.90;97.70;;;;;;4185511;28;20041;-69
2022/04/29 02:34:58;;;;;;;10.82;6.82;;;28.90;97.40;;;;;;4186500;28;20093;-70
2022/04/29 02:37:02;;;;;;;10.38;6.88;;;29.00;96.70;;;;;;4181253;28;20065;-68
2022/04/29 02:39:08;;;;;;;9.20;7.28;;;29.10;96.60;;;;;;4171669;28;20057;-70
2022/04/29 02:41:19;;;;;;;8.82;7.55;;;29.10;96.40;;;;;;4188225;28;20455;-69
2022/04/29 02:43:24;;;;;;;10.15;7.72;;;29.20;96.40;;;;;;4186199;28;20049;-69
2022/04/29 02:45:28;;;;;;;10.13;7.57;;;29.20;96.10;;;;;;4186267;28;20115;-69
2022/04/29 02:47:37;;;;;;;9.20;7.10;;;29.20;95.80;;;;;;4187265;28;20047;-69
2022/04/29 02:49:43;;;;;;;11.05;7.55;;;29.30;95.00;;;;;;4191981;28;20523;-71
2022/04/29 02:51:49;;;;;;;9.10;7.10;;;29.30;95.30;;;;;;4187138;28;20049;-70
2022/04/29 02:53:58;;;;;;;8.63;6.40;;;29.40;94.70;;;;;;4200978;28;20041;-70
2022/04/29 02:56:03;;;;;;;9.15;6.50;;;29.40;95.00;;;;;;4201337;28;20054;-68
2022/04/29 02:58:16;;;;;;;8.05;6.13;;;29.50;94.10;;;;;;4183898;28;20155;-68
2022/04/29 03:00:22;;;;;;;8.02;6.20;;;29.50;93.80;;;;;;4200907;28;20616;-67
2022/04/29 03:02:27;;;;;;;9.07;6.68;;;29.60;93.30;;;;;;4165765;28;20081;-69
2022/04/29 03:04:32;;;;;;;7.43;5.90;;;29.60;93.70;;;;;;4185520;28;20056;-68
2022/04/29 03:06:38;;;;;;;7.03;5.57;;;29.60;93.60;;;;;;4183588;28;20087;-69
2022/04/29 03:08:42;;;;;;;10.30;6.10;;;29.70;93.10;;;;;;4187178;28;20049;-68
2022/04/29 03:10:47;;;;;;;9.23;5.97;;;29.70;93.40;;;;;;4185673;28;20111;-68
2022/04/29 03:12:54;;;;;;;6.78;5.45;;;29.70;92.90;;;;;;4184477;28;20037;-68
2022/04/29 03:15:16;;;;;;;7.88;5.70;;;29.70;92.90;;;;;;4185755;28;20053;-69
2022/04/29 03:19:47;;;;;;;10.07;6.13;;;29.90;92.90;;;;;;4188988;28;20045;-69
2022/04/29 03:21:52;;;;;;;8.98;5.72;;;30.00;93.00;;;;;;4183661;28;20041;-70
2022/04/29 03:23:56;;;;;;;7.20;6.05;;;30.00;92.90;;;;;;4181225;28;20045;-68
2022/04/29 03:26:07;;;;;;;8.73;6.38;;;30.00;92.80;;;;;;4187800;28;20080;-69
2022/04/29 03:28:12;;;;;;;10.68;5.95;;;30.10;92.50;;;;;;4187836;28;20045;-71
2022/04/29 03:30:16;;;;;;;9.50;6.53;;;30.10;92.00;;;;;;4185241;28;20510;-69
2022/04/29 03:32:26;;;;;;;8.15;6.15;;;30.10;91.50;;;;;;4203976;28;20044;-70
2022/04/29 03:34:38;;;;;;;7.32;6.13;;;30.20;91.90;;;;;;4187016;28;20522;-69
2022/04/29 03:36:42;;;;;;;8.82;6.95;;;30.30;92.10;;;;;;4186150;28;20053;-70
2022/04/29 03:38:51;;;;;;;10.15;7.05;;;30.40;92.40;;;;;;4186907;28;20041;-70
2022/04/29 03:40:56;;;;;;;9.85;6.90;;;30.30;92.40;;;;;;4181048;28;20041;-70
2022/04/29 03:43:02;;;;;;;9.57;7.00;;;30.40;92.20;;;;;;4186381;28;20041;-71
2022/04/29 03:45:09;;;;;;;11.10;7.40;;;30.50;92.70;;;;;;4185251;28;20040;-71
2022/04/29 03:47:14;;;;;;;8.48;6.47;;;30.60;91.80;;;;;;4184578;28;20392;-70
2022/04/29 03:49:37;;;;;;;8.88;6.32;;;30.70;92.00;;;;;;4184335;28;20041;-71
2022/04/29 03:51:57;;;;;;;6.97;6.28;;;30.60;91.90;;;;;;4153082;28;20046;-69
2022/04/29 03:54:02;;;;;;;9.25;5.95;;;30.50;92.00;;;;;;4178558;28;20132;-70
2022/04/29 03:56:07;;;;;;;9.88;5.93;;;30.50;91.50;;;;;;4178454;28;20053;-69
2022/04/29 03:58:14;;;;;;;8.32;5.90;;;30.50;91.40;;;;;;4183197;28;20049;-69
2022/04/29 04:00:24;;;;;;;9.25;6.00;;;30.50;91.30;;;;;;4178123;28;20045;-70
2022/04/29 04:02:30;;;;;;;7.10;5.70;;;30.60;92.30;;;;;;4178400;28;20076;-70
2022/04/29 04:04:44;;;;;;;7.93;6.25;;;30.80;91.70;;;;;;4183601;28;20103;-69
2022/04/29 04:06:51;;;;;;;8.57;6.32;;;30.80;91.50;;;;;;4186310;28;20036;-67
2022/04/29 04:09:07;;;;;;;6.72;5.55;;;30.80;91.50;;;;;;4185039;28;20091;-69
2022/04/29 04:11:18;;;;;;;8.35;5.72;;;30.90;91.20;;;;;;4186355;28;20044;-70
2022/04/29 04:13:24;;;;;;;16.23;6.30;;;31.00;91.00;;;;;;4182993;28;20080;-70
2022/04/29 04:15:49;;;;;;;7.63;5.70;;;31.10;91.40;;;;;;4180590;28;20475;-69
2022/04/29 04:17:59;;;;;;;8.43;5.75;;;31.00;91.00;;;;;;4184165;28;20101;-70
2022/04/29 04:20:06;;;;;;;6.53;5.70;;;31.00;90.70;;;;;;4175580;28;20056;-69
2022/04/29 04:22:27;;;;;;;6.22;5.22;;;30.90;91.30;;;;;;4181482;28;20075;-70
2022/04/29 04:24:34;;;;;;;8.70;5.85;;;31.10;90.80;;;;;;4191138;28;20101;-67
2022/04/29 04:26:40;;;;;;;9.13;5.63;;;31.20;90.40;;;;;;4194084;28;20055;-70
2022/04/29 04:28:49;;;;;;;6.82;4.97;;;31.10;90.80;;;;;;4184882;28;20135;-70
2022/04/29 04:30:58;;;;;;;7.32;5.30;;;31.10;90.60;;;;;;4193662;28;20052;-68
2022/04/29 04:33:15;;;;;;;7.65;5.53;;;31.20;90.70;;;;;;4190260;28;20104;-70
2022/04/29 04:35:22;;;;;;;6.32;5.63;;;31.20;91.20;;;;;;4187446;28;20113;-70
2022/04/29 04:37:32;;;;;;;8.40;6.05;;;31.30;90.70;;;;;;4190285;28;20396;-71
2022/04/29 04:39:40;;;;;;;7.25;5.63;;;31.40;90.30;;;;;;4193464;28;20065;-70
2022/04/29 04:41:49;;;;;;;7.55;5.63;;;31.50;90.90;;;;;;4178664;28;20041;-70
2022/04/29 04:44:09;;;;;;;7.82;5.45;;;31.50;90.40;;;;;;4166504;28;20045;-70
2022/04/29 04:46:14;;;;;;;6.20;5.38;;;31.50;90.60;;;;;;4184968;28;20057;-70
2022/04/29 04:48:31;;;;;;;6.80;5.50;;;31.50;90.20;;;;;;4186827;28;20048;-70
2022/04/29 04:50:53;;;;;;;8.15;5.90;;;31.30;90.50;;;;;;4194164;28;20055;-70
2022/04/29 04:52:58;;;;;;;8.27;5.50;;;31.30;91.30;;;;;;4193242;28;20044;-70
2022/04/29 04:55:06;;;;;;;9.23;5.85;;;31.30;90.80;;;;;;4190705;28;20033;-71
2022/04/29 04:57:16;;;;;;;9.55;5.97;;;31.30;90.60;;;;;;4188315;28;20049;-72
2022/04/29 04:59:21;;;;;;;8.02;5.88;;;31.30;90.50;;;;;;4194267;28;20549;-70
2022/04/29 05:01:32;;;;;;;8.13;5.95;;;31.40;91.10;;;;;;4196099;28;20090;-72
2022/04/29 05:04:00;;;;;;;8.80;5.90;;;31.40;90.90;;;;;;4195173;28;20663;-71
2022/04/29 05:06:25;;;;;;;7.53;5.63;;;31.50;91.00;;;;;;4188672;28;20093;-71
2022/04/29 05:08:30;;;;;;;7.05;5.78;;;31.60;90.80;;;;;;4194403;28;20147;-71
2022/04/29 05:10:39;;;;;;;7.70;5.65;;;31.70;90.40;;;;;;4186173;28;20068;-71
2022/04/29 05:12:45;;;;;;;7.32;5.20;;;31.80;90.50;;;;;;4162918;28;20084;-72
2022/04/29 05:15:02;;;;;;;8.38;5.40;;;32.00;89.30;;;;;;4175048;28;20041;-70
2022/04/29 05:17:11;;;;;;;6.75;5.40;;;32.10;90.00;;;;;;4188839;28;20048;-71
2022/04/29 05:19:28;;;;;;;6.68;5.05;;;32.20;89.10;;;;;;4193210;28;20499;-72
2022/04/29 05:21:33;;;;;;;6.57;5.20;;;32.30;89.50;;;;;;4165541;28;20084;-71
2022/04/29 05:23:42;;;;;;;6.22;5.50;;;32.30;89.20;;;;;;4185046;28;20049;-71
2022/04/29 05:26:07;;;;;;;6.85;5.75;;;32.30;89.00;;;;;;4184015;28;20071;-72
2022/04/29 05:28:24;;;;;;;6.82;5.60;;;32.30;89.20;;;;;;4185828;28;20066;-72
2022/04/29 05:30:44;;;;;;;8.18;5.97;;;32.30;89.40;;;;;;4193579;28;20036;-69
2022/04/29 05:32:56;;;;;;;7.90;5.72;;;32.40;88.50;;;;;;4180655;28;22903;-71
2022/04/29 05:35:13;;;;;;;11.52;5.70;;;32.30;89.00;;;;;;4181395;28;20514;-72
2022/04/29 05:37:34;;;;;;;8.52;5.43;;;32.20;89.50;;;;;;4177245;28;20129;-71
2022/04/29 05:44:22;;;;;;;6.88;5.38;;;32.60;90.20;;;;;;4171697;28;20395;-69
2022/04/29 05:46:26;;;;;;;6.60;5.07;;;32.60;90.10;;;;;;4190158;28;20048;-69
2022/04/29 05:48:34;;;;;;;7.85;5.07;;;32.70;88.90;;;;;;4184809;28;20055;-69
2022/04/29 05:50:42;;;;;;;7.20;4.72;;;32.70;86.00;;;;;;4174494;28;20038;-70
2022/04/29 05:52:47;;;;;;;5.63;5.00;;;32.80;87.20;;;;;;4195218;28;20047;-70
2022/04/29 05:54:52;;;;;;;9.73;5.05;;;32.90;87.20;;;;;;4193760;28;20059;-70
2022/04/29 05:57:05;;;;;;;7.43;5.00;;;33.00;86.70;;;;;;4193647;28;20041;-71
2022/04/29 05:59:09;;;;;;;6.07;5.22;;;33.00;87.50;;;;;;4177501;28;20477;-70
2022/04/29 06:01:26;;;;;;;7.13;4.82;;;33.00;87.60;;;;;;4185904;28;20557;-69
2022/04/29 06:03:34;;;;;;;6.72;5.15;;;33.00;87.70;;;;;;4191371;28;20040;-70
2022/04/29 06:05:40;;;;;;;6.72;5.10;;;33.00;86.60;;;;;;4192016;28;20127;-70
2022/04/29 06:07:45;;;;;;;6.05;4.90;;;33.00;85.50;;;;;;4193094;28;20640;-70
2022/04/29 06:10:05;;;;;;;7.80;4.53;;;33.10;85.00;;;;;;4176426;28;20103;-70
2022/04/29 06:12:12;;;;;;;6.10;4.93;;;33.10;84.90;;;;;;4185572;28;20064;-70
2022/04/29 06:14:17;;;;;;;5.47;4.97;;;33.10;84.70;;;;;;4176579;28;20045;-69
2022/04/29 06:16:28;;;;;;;9.00;5.55;;;33.00;84.20;;;;;;4159895;28;20103;-70
2022/04/29 06:18:45;;;;;;;6.95;5.13;;;33.10;85.80;;;;;;4194905;28;20059;-70
2022/04/29 06:21:09;;;;;;;5.20;4.53;;;33.20;84.60;;;;;;4193929;28;20068;-70
2022/04/29 06:23:26;;;;;;;9.98;5.35;;;33.20;84.50;;;;;;4176284;28;20057;-68
2022/04/29 06:25:32;;;;;;;5.38;4.80;;;33.10;85.20;;;;;;4192079;28;20143;-69
2022/04/29 06:27:37;;;;;;;7.75;4.88;;;33.10;83.30;;;;;;4191804;28;20083;-69
2022/04/29 06:29:46;;;;;;;6.07;4.55;;;33.10;83.00;;;;;;4190612;28;20131;-69
2022/04/29 06:31:51;;;;;;;7.68;4.85;;;33.20;83.60;;;;;;4191761;28;20040;-69
2022/04/29 06:34:08;;;;;;;4.88;4.10;;;33.10;83.10;;;;;;4193750;28;20076;-70
2022/04/29 06:36:15;;;;;;;5.13;4.40;;;33.20;83.00;;;;;;4174108;28;20478;-70
2022/04/29 06:38:23;;;;;;;4.70;3.95;;;33.20;82.40;;;;;;4189667;28;20041;-70
2022/04/29 06:40:31;;;;;;;6.00;4.70;;;33.20;83.20;;;;;;4155826;28;20059;-68
2022/04/29 06:42:48;;;;;;;5.85;5.00;;;33.30;83.40;;;;;;4175863;28;20496;-69
2022/04/29 06:45:06;;;;;;;8.18;5.10;;;33.10;82.90;;;;;;4196352;28;20036;-70
2022/04/29 06:47:22;;;;;;;6.00;5.40;;;33.10;83.60;;;;;;4195563;28;20103;-70
2022/04/29 06:49:43;;;;;;;6.68;4.97;;;33.00;83.90;;;;;;4196423;28;20487;-70
2022/04/29 06:52:00;;;;;;;7.40;5.68;;;33.20;85.10;;;;;;4194534;28;20102;-70
2022/04/29 06:54:11;;;;;;;6.78;5.82;;;33.20;85.60;;;;;;4193351;28;20083;-70
2022/04/29 06:56:26;;;;;;;6.05;5.30;;;33.20;85.40;;;;;;4178285;28;20052;-70
2022/04/29 06:58:31;;;;;;;7.35;6.15;;;33.20;85.90;;;;;;4179676;28;20045;-70
2022/04/29 07:00:37;;;;;;;6.85;6.15;;;33.40;85.70;;;;;;4179626;28;20045;-70
2022/04/29 07:02:47;;;;;;;6.57;5.50;;;33.60;84.90;;;;;;4179884;28;20045;-69
2022/04/29 07:04:55;;;;;;;6.43;5.82;;;33.50;84.90;;;;;;4194879;28;20118;-69
2022/04/29 07:07:02;;;;;;;8.80;5.95;;;33.40;84.00;;;;;;4190179;28;20379;-71
2022/04/29 07:09:14;;;;;;;6.57;5.97;;;33.30;84.30;;;;;;4165183;28;20053;-70
2022/04/29 07:11:31;;;;;;;6.72;6.03;;;33.40;85.20;;;;;;4192217;28;20720;-70
2022/04/29 07:13:43;;;;;;;9.48;6.55;;;33.40;84.60;;;;;;4175667;28;20037;-70
2022/04/29 07:15:51;;;;;;;8.05;6.95;;;33.60;84.70;;;;;;4191354;28;20459;-71
2022/04/29 07:18:10;;;;;;;7.38;6.55;;;33.60;83.50;;;;;;4181667;28;20045;-69
2022/04/29 07:20:18;;;;;;;8.23;6.85;;;33.60;84.00;;;;;;4194092;28;20147;-70
2022/04/29 07:22:33;;;;;;;9.30;6.43;;;33.60;84.10;;;;;;4179133;28;20067;-72
2022/04/29 07:24:45;;;;;;;8.93;7.57;;;33.50;83.70;;;;;;4175121;28;20045;-71
2022/04/29 07:26:51;;;;;;;8.93;6.72;;;33.40;85.10;;;;;;4180591;28;20128;-70
2022/04/29 07:29:01;;;;;;;8.23;6.70;;;33.40;84.30;;;;;;4171597;28;20049;-69
2022/04/29 07:31:12;;;;;;;7.47;6.60;;;33.40;84.60;;;;;;4190476;28;20037;-69
2022/04/29 07:33:37;;;;;;;7.13;6.35;;;33.40;84.80;;;;;;4194428;28;20066;-71
2022/04/29 07:42:59;;;;;;;9.32;7.50;;;33.40;84.50;;;;;;4194718;28;20048;-71
2022/04/29 07:45:05;;;;;;;9.23;6.85;;;33.50;84.40;;;;;;4178495;28;20037;-71
2022/04/29 07:47:29;;;;;;;10.70;7.53;;;33.50;84.50;;;;;;4191256;28;20076;-70
2022/04/29 07:49:42;;;;;;;9.23;7.22;;;33.40;84.80;;;;;;4175370;28;20054;-72
2022/04/29 07:51:52;;;;;;;8.75;7.85;;;33.40;84.20;;;;;;4195657;28;20174;-70
2022/04/29 07:53:58;;;;;;;8.77;7.38;;;33.40;83.90;;;;;;4159914;28;20416;-71
2022/04/29 07:56:07;;;;;;;10.32;8.32;;;33.40;84.00;;;;;;4190762;28;20055;-71
2022/04/29 07:58:14;;;;;;;8.32;7.53;;;33.30;83.80;;;;;;4166995;28;20075;-71
2022/04/29 08:00:19;;;;;;;8.45;7.55;;;33.20;84.90;;;;;;4176282;28;20099;-71
2022/04/29 08:02:28;;;;;;;9.18;7.53;;;33.40;84.60;;;;;;4177365;28;20041;-71
2022/04/29 08:04:33;;;;;;;10.63;7.97;;;33.60;84.20;;;;;;4176271;28;20064;-71
2022/04/29 08:06:39;;;;;;;12.40;7.88;;;33.70;83.70;;;;;;4191670;28;20140;-71
2022/04/29 08:09:08;;;;;;;10.13;7.47;;;33.60;84.10;;;;;;4196028;28;20048;-71
2022/04/29 08:11:15;;;;;;;8.70;7.80;;;33.70;83.50;;;;;;4188390;28;20060;-71
2022/04/29 08:13:41;;;;;;;8.63;7.53;;;33.70;83.70;;;;;;4192190;28;20044;-72
2022/04/29 08:16:22;;;;;;;9.23;7.80;;;33.70;84.30;;;;;;4160639;28;20053;-72
2022/04/29 08:18:37;;;;;;;10.43;7.35;;;33.80;84.60;;;;;;4144011;28;20655;-71
2022/04/29 08:20:43;;;;;;;9.20;8.30;;;33.70;84.30;;;;;;4128161;28;20057;-71
2022/04/29 08:22:52;;;;;;;8.48;7.57;;;33.80;84.00;;;;;;4157755;28;20111;-72
2022/04/29 08:24:58;;;;;;;12.40;8.52;;;33.80;84.40;;;;;;4160035;28;20042;-71
2022/04/29 08:27:04;;;;;;;9.00;8.05;;;33.80;84.90;;;;;;4143235;28;20081;-71
2022/04/29 08:29:12;;;;;;;10.80;8.32;;;33.80;84.80;;;;;;4160264;28;20069;-71
2022/04/29 08:31:21;;;;;;;8.65;7.70;;;33.80;85.30;;;;;;4143683;28;20064;-71
2022/04/29 08:33:31;;;;;;;8.45;7.47;;;33.60;84.60;;;;;;4141979;28;20053;-73
2022/04/29 08:35:48;;;;;;;9.05;8.13;;;33.50;85.70;;;;;;4143072;28;20081;-71
2022/04/29 08:37:57;;;;;;;10.32;8.55;;;33.60;85.70;;;;;;4142385;28;20137;-72
2022/04/29 08:40:13;;;;;;;10.07;9.07;;;33.70;85.30;;;;;;4146575;28;20065;-70
2022/04/29 08:42:21;;;;;;;9.63;8.65;;;33.80;84.80;;;;;;4147709;28;20046;-71
2022/04/29 08:44:25;;;;;;;11.93;9.35;;;33.80;85.20;;;;;;4141003;28;20205;-70
2022/04/29 08:46:43;;;;;;;10.05;8.98;;;33.80;84.90;;;;;;4141181;28;20082;-70
2022/04/29 08:49:09;;;;;;;12.55;8.95;;;33.80;85.20;;;;;;4156629;28;20045;-70
2022/04/29 08:51:16;;;;;;;9.63;8.63;;;33.80;85.20;;;;;;4145085;28;20041;-69
2022/04/29 08:53:23;;;;;;;10.75;8.48;;;33.80;85.30;;;;;;4162166;28;21257;-72
2022/04/29 09:00:06;;;;;;;10.52;8.15;;;33.90;86.10;;;;;;4168598;28;20089;-72
2022/04/29 09:02:11;;;;;;;9.90;8.90;;;33.80;86.20;;;;;;4176305;28;20458;-73
2022/04/29 09:04:18;;;;;;;9.68;8.70;;;33.90;86.30;;;;;;4170960;28;20536;-71
2022/04/29 09:06:24;;;;;;;11.32;9.38;;;33.90;86.40;;;;;;4171898;28;20115;-72
2022/04/29 09:08:38;;;;;;;11.82;9.40;;;33.90;86.00;;;;;;4173802;28;20068;-72
2022/04/29 09:11:05;;;;;;;12.27;9.98;;;33.80;85.80;;;;;;4177014;28;20091;-72
2022/04/29 09:13:29;;;;;;;10.80;9.68;;;33.80;85.90;;;;;;4176817;28;20113;-71
2022/04/29 09:15:36;;;;;;;11.80;9.48;;;33.70;87.30;;;;;;4165242;28;20041;-70
2022/04/29 09:17:51;;;;;;;11.07;9.13;;;33.60;87.20;;;;;;4149077;28;20058;-72
2022/04/29 09:19:58;;;;;;;10.93;9.77;;;33.50;87.50;;;;;;4171124;28;20041;-70
2022/04/29 09:22:07;;;;;;;12.23;10.07;;;33.50;87.80;;;;;;4187430;28;20131;-71
2022/04/29 09:24:25;;;;;;;10.90;9.70;;;33.60;87.60;;;;;;4176899;28;20140;-71
2022/04/29 09:26:52;;;;;;;10.63;9.35;;;33.50;87.10;;;;;;4184557;28;20055;-72
2022/04/29 09:29:19;;;;;;;11.77;10.07;;;33.20;88.00;;;;;;4195254;28;20116;-71
2022/04/29 09:31:56;;;;;;;13.13;9.55;;;33.10;88.20;;;;;;4173953;28;20041;-69
2022/04/29 09:34:42;;;;;;;10.85;9.73;;;33.10;88.40;;;;;;4191881;28;20146;-71
2022/04/29 09:36:47;;;;;;;12.43;10.65;;;33.10;88.50;;;;;;4191599;28;20029;-71
2022/04/29 09:41:33;;;;;;;13.75;10.32;;;33.30;88.10;;;;;;4163608;28;20063;-71
2022/04/29 09:43:46;;;;;;;13.43;10.60;;;33.20;88.50;;;;;;4195067;28;20048;-71
2022/04/29 09:45:51;;;;;;;13.25;10.55;;;33.20;88.60;;;;;;4194599;28;20087;-71
2022/04/29 09:47:58;;;;;;;13.73;10.40;;;33.10;88.00;;;;;;4193591;28;20074;-72
2022/04/29 09:50:04;;;;;;;12.38;10.30;;;33.10;87.90;;;;;;4192519;28;20060;-71
2022/04/29 09:52:09;;;;;;;16.48;12.15;;;33.10;87.80;;;;;;4194472;28;20044;-72
2022/04/29 09:54:23;;;;;;;14.15;10.38;;;33.10;88.60;;;;;;4191994;28;20033;-72
2022/04/29 09:56:28;;;;;;;13.38;10.27;;;33.00;86.70;;;;;;4190440;28;20131;-72
2022/04/29 09:58:33;;;;;;;12.25;10.40;;;33.00;86.80;;;;;;4195219;28;20032;-72
2022/04/29 10:00:39;;;;;;;13.77;10.40;;;33.00;86.20;;;;;;4192242;28;20040;-72
2022/04/29 10:02:44;;;;;;;11.95;9.75;;;33.00;86.40;;;;;;4192746;28;20044;-72
2022/04/29 10:04:51;;;;;;;14.00;9.90;;;32.90;85.10;;;;;;4174620;28;20041;-71
2022/04/29 10:06:59;;;;;;;11.05;9.18;;;32.80;85.40;;;;;;4187421;28;20368;-71
2022/04/29 10:09:04;;;;;;;13.73;10.13;;;32.80;85.80;;;;;;4186629;28;20050;-72
2022/04/29 10:11:10;;;;;;;11.48;9.85;;;32.80;86.20;;;;;;4186997;28;20781;-73
2022/04/29 10:13:18;;;;;;;12.48;10.25;;;32.80;86.50;;;;;;4169379;28;20034;-72
2022/04/29 10:15:35;;;;;;;13.65;9.73;;;32.80;86.80;;;;;;4166846;28;20060;-72
2022/04/29 10:22:42;;;;;;;10.65;9.55;;;32.70;87.20;;;;;;4192215;28;20064;-72
2022/04/29 10:24:47;;;;;;;12.05;10.07;;;32.70;87.70;;;;;;4190661;28;20555;-72
2022/04/29 10:26:54;;;;;;;12.02;9.20;;;32.70;88.00;;;;;;4191361;28;20052;-72
2022/04/29 10:28:59;;;;;;;17.33;10.02;;;32.70;87.50;;;;;;4191552;28;20072;-74
2022/04/29 10:31:09;;;;;;;13.40;10.15;;;32.60;87.10;;;;;;4193873;28;20052;-72
2022/04/29 10:33:23;;;;;;;14.15;10.65;;;32.60;87.20;;;;;;4195422;28;20479;-72
2022/04/29 10:35:49;;;;;;;12.60;10.35;;;32.60;87.70;;;;;;4195290;28;20041;-71
2022/04/29 10:38:20;;;;;;;12.35;10.63;;;32.60;87.80;;;;;;4179370;28;20100;-72
2022/04/29 10:40:30;;;;;;;14.02;10.95;;;32.50;88.20;;;;;;4181671;28;20114;-73
2022/04/29 10:43:02;;;;;;;12.77;10.88;;;32.50;88.70;;;;;;4192432;28;20134;-73
2022/04/29 10:45:08;;;;;;;11.98;10.77;;;32.40;89.10;;;;;;4194077;28;20036;-72
2022/04/29 10:47:41;;;;;;;14.60;10.02;;;32.50;89.60;;;;;;4193417;28;20442;-73
2022/04/29 10:50:23;;;;;;;12.23;10.20;;;32.40;90.00;;;;;;4194765;28;20032;-74
2022/04/29 10:52:42;;;;;;;14.18;10.57;;;32.40;89.80;;;;;;4195490;28;20041;-74
2022/04/29 10:54:56;;;;;;;13.77;10.10;;;32.40;90.00;;;;;;4179308;28;20041;-74
2022/04/29 10:57:06;;;;;;;12.05;10.27;;;32.40;89.60;;;;;;4189758;28;20160;-74
2022/04/29 10:59:15;;;;;;;13.57;10.80;;;32.40;90.10;;;;;;4187591;28;20075;-73
2022/04/29 11:01:33;;;;;;;13.40;10.80;;;32.40;90.30;;;;;;4185490;28;20569;-70
2022/04/29 11:03:44;;;;;;;11.98;9.88;;;32.40;90.30;;;;;;4165008;28;20056;-73
2022/04/29 11:05:51;;;;;;;13.38;11.25;;;32.40;90.40;;;;;;4186544;28;20040;-73
2022/04/29 11:08:06;;;;;;;15.23;11.50;;;32.30;90.50;;;;;;4182936;28;20128;-74
2022/04/29 11:10:24;;;;;;;11.63;10.02;;;32.30;90.70;;;;;;4182329;28;20061;-72
2022/04/29 11:12:41;;;;;;;13.18;10.85;;;32.30;90.70;;;;;;4182839;28;20554;-72
2022/04/29 11:15:09;;;;;;;12.10;10.77;;;32.30;90.90;;;;;;4183654;28;20109;-72
2022/04/29 11:17:37;;;;;;;12.13;10.85;;;32.20;91.00;;;;;;4182865;28;20487;-73
2022/04/29 11:19:47;;;;;;;13.80;12.32;;;32.20;91.50;;;;;;4188347;28;20044;-73
2022/04/29 11:26:46;;;;;;;14.15;12.20;;;32.10;91.90;;;;;;4179396;28;20139;-74
2022/04/29 11:28:54;;;;;;;16.95;15.13;;;32.00;92.00;;;;;;4164609;28;20466;-73
2022/04/29 11:31:14;;;;;;;16.10;14.40;;;32.00;92.20;;;;;;4193263;28;20040;-73
2022/04/29 11:33:23;;;;;;;14.35;12.65;;;32.00;92.50;;;;;;4187752;28;20060;-73
2022/04/29 11:35:28;;;;;;;15.60;12.88;;;31.90;92.60;;;;;;4190213;28;20051;-73
2022/04/29 11:37:37;;;;;;;15.90;12.18;;;31.90;92.60;;;;;;4192247;28;20098;-74
2022/04/29 11:39:41;;;;;;;17.55;12.07;;;31.90;92.70;;;;;;4195857;28;20398;-73
2022/04/29 11:41:55;;;;;;;15.82;12.68;;;31.90;92.90;;;;;;4196907;28;20057;-73
2022/04/29 11:44:03;;;;;;;18.10;13.23;;;31.90;93.30;;;;;;4191706;28;20140;-73
2022/04/29 11:46:09;;;;;;;14.88;12.18;;;31.80;93.10;;;;;;4181090;28;20074;-74
2022/04/29 11:48:18;;;;;;;13.65;12.25;;;31.80;93.20;;;;;;4192490;28;20219;-74